Time;durP1;ratioP1;P1;durP2;ratioP2;P2;SDS_P1;SDS_P2;PMS_P1;PMS_P2;Temp;Humidity;BMP_temperature;BMP_pressure;BME280_temperature;BME280_humidity;BME280_pressure;Samples;Min_cycle;Max_cycle;Signal;HPM_P1;HPM_P2
2023/08/21 00:00:05;;;;;;;4.53;2.10;;;16.20;99.90;;;;;;5020433;28;20390;-57
2023/08/21 00:02:31;;;;;;;5.05;2.25;;;16.40;99.90;;;;;;5019363;28;20099;-55
2023/08/21 00:04:57;;;;;;;6.78;2.50;;;16.70;99.90;;;;;;5024163;28;20041;-57
2023/08/21 00:07:23;;;;;;;6.80;3.00;;;15.50;99.90;;;;;;5018426;28;20042;-57
2023/08/21 00:09:50;;;;;;;9.70;2.70;;;15.60;99.90;;;;;;5023959;28;20092;-57
2023/08/21 00:12:15;;;;;;;5.45;2.40;;;16.10;99.90;;;;;;5003508;28;20038;-57
2023/08/21 00:14:41;;;;;;;5.68;2.35;;;15.70;99.90;;;;;;5025608;28;20040;-57
2023/08/21 00:17:07;;;;;;;5.80;2.30;;;15.70;99.90;;;;;;5015492;28;20038;-57
2023/08/21 00:19:33;;;;;;;5.70;2.13;;;15.20;99.90;;;;;;5027481;28;20503;-57
2023/08/21 00:22:00;;;;;;;5.63;2.10;;;;;;;;;;5027077;28;20113;-57
2023/08/21 00:24:26;;;;;;;10.55;2.40;;;16.00;99.90;;;;;;5015558;28;20447;-57
2023/08/21 00:26:51;;;;;;;4.82;2.05;;;16.00;99.90;;;;;;5031095;28;20037;-57
2023/08/21 00:29:17;;;;;;;4.90;2.10;;;15.80;99.90;;;;;;5028680;28;20060;-58
2023/08/21 00:31:47;;;;;;;5.25;1.60;;;16.00;99.90;;;;;;5021754;28;20039;-57
2023/08/21 00:34:13;;;;;;;4.25;1.50;;;15.90;99.90;;;;;;5020751;28;20034;-56
2023/08/21 00:36:39;;;;;;;4.13;1.70;;;15.90;99.90;;;;;;5018321;28;20191;-57
2023/08/21 00:39:04;;;;;;;6.25;1.90;;;15.30;99.90;;;;;;5027742;28;20044;-56
2023/08/21 00:41:31;;;;;;;5.43;2.03;;;15.20;99.90;;;;;;5030908;28;20040;-53
2023/08/21 00:43:56;;;;;;;4.95;2.20;;;15.90;99.90;;;;;;5026467;28;20504;-57
2023/08/21 00:46:22;;;;;;;5.30;1.45;;;15.90;99.90;;;;;;5020444;28;20053;-56
2023/08/21 00:48:48;;;;;;;7.38;2.10;;;15.70;99.90;;;;;;5030520;28;20030;-56
2023/08/21 00:51:16;;;;;;;4.60;1.88;;;15.80;99.90;;;;;;5028808;28;20045;-57
2023/08/21 00:53:43;;;;;;;4.53;1.70;;;15.70;99.90;;;;;;5020976;28;20041;-57
2023/08/21 00:56:08;;;;;;;4.40;1.95;;;15.90;99.90;;;;;;5027679;28;20038;-57
2023/08/21 00:58:35;;;;;;;5.55;1.80;;;16.00;99.90;;;;;;5023418;28;20065;-56
2023/08/21 01:01:01;;;;;;;5.43;1.98;;;14.90;99.90;;;;;;5021197;28;20058;-56
2023/08/21 01:03:26;;;;;;;4.57;1.90;;;15.20;99.90;;;;;;5019480;28;20044;-56
2023/08/21 01:05:52;;;;;;;5.85;1.83;;;15.50;99.90;;;;;;5024241;28;20053;-57
2023/08/21 01:08:25;;;;;;;5.90;2.25;;;15.80;99.90;;;;;;5023449;28;20073;-57
2023/08/21 01:11:26;;;;;;;4.38;1.77;;;15.00;99.90;;;;;;5022123;28;20062;-57
2023/08/21 01:14:12;;;;;;;4.05;1.42;;;14.90;99.90;;;;;;4998249;28;20124;-57
2023/08/21 01:16:39;;;;;;;4.90;1.52;;;15.90;99.90;;;;;;5021853;28;20052;-57
2023/08/21 01:19:14;;;;;;;4.88;1.90;;;15.00;99.90;;;;;;5029721;28;20033;-57
2023/08/21 01:21:40;;;;;;;4.60;1.83;;;15.50;99.90;;;;;;5028135;28;20096;-56
2023/08/21 01:24:06;;;;;;;5.38;1.70;;;15.00;99.90;;;;;;5021269;28;20038;-57
2023/08/21 01:26:31;;;;;;;4.22;1.60;;;14.90;99.90;;;;;;5016172;28;20539;-57
2023/08/21 01:28:57;;;;;;;6.95;2.10;;;15.60;99.90;;;;;;5028835;28;20045;-56
2023/08/21 01:31:30;;;;;;;4.30;1.60;;;16.10;99.90;;;;;;5026336;28;20041;-57
2023/08/21 01:34:00;;;;;;;8.63;2.42;;;15.00;99.90;;;;;;5020921;28;20055;-56
2023/08/21 01:36:26;;;;;;;7.05;1.83;;;15.10;99.90;;;;;;5023289;28;20087;-56
2023/08/21 01:38:52;;;;;;;4.30;1.67;;;15.20;99.90;;;;;;5017873;28;20426;-56
2023/08/21 01:41:18;;;;;;;4.47;1.85;;;15.30;99.90;;;;;;5025131;28;20045;-56
2023/08/21 01:43:44;;;;;;;4.18;1.48;;;14.80;99.90;;;;;;5027871;28;20438;-57
2023/08/21 01:46:09;;;;;;;5.30;2.00;;;15.40;99.90;;;;;;5024869;28;20136;-57
2023/08/21 01:48:35;;;;;;;4.90;1.98;;;15.60;99.90;;;;;;5019140;28;20510;-58
2023/08/21 01:51:04;;;;;;;6.30;3.08;;;15.20;99.90;;;;;;5020351;28;20042;-58
2023/08/21 01:53:29;;;;;;;5.28;1.90;;;15.00;99.90;;;;;;5027016;28;20060;-57
2023/08/21 01:55:55;;;;;;;5.05;1.92;;;15.90;99.90;;;;;;5019741;28;20041;-57
2023/08/21 01:58:20;;;;;;;4.95;1.80;;;15.00;99.90;;;;;;5027135;28;20422;-58
2023/08/21 02:00:47;;;;;;;4.60;1.50;;;15.50;99.90;;;;;;5023077;28;20072;-57
2023/08/21 02:03:13;;;;;;;4.05;1.65;;;15.50;99.90;;;;;;5029140;28;20029;-57
2023/08/21 02:05:39;;;;;;;4.85;1.75;;;14.70;99.90;;;;;;5024619;28;20048;-57
2023/08/21 02:08:07;;;;;;;5.22;2.10;;;15.70;99.90;;;;;;5023511;28;20041;-56
2023/08/21 02:10:32;;;;;;;7.13;2.35;;;15.30;99.90;;;;;;5024669;28;20057;-57
2023/08/21 02:12:58;;;;;;;4.47;1.90;;;15.30;99.90;;;;;;5016935;28;20109;-57
2023/08/21 02:15:24;;;;;;;6.85;2.30;;;15.70;99.90;;;;;;5002722;28;20092;-57
2023/08/21 02:17:49;;;;;;;4.47;1.77;;;15.70;99.90;;;;;;5023988;28;20646;-57
2023/08/21 02:20:15;;;;;;;5.70;2.10;;;14.50;1.00;;;;;;5017439;28;20496;-54
2023/08/21 02:22:40;;;;;;;6.15;3.03;;;14.70;99.90;;;;;;5015637;28;20051;-55
2023/08/21 02:25:06;;;;;;;8.48;2.65;;;14.90;1.00;;;;;;5014393;28;20040;-57
2023/08/21 02:27:32;;;;;;;6.43;1.85;;;15.10;1.00;;;;;;5018238;28;20091;-57
2023/08/21 02:29:57;;;;;;;4.35;1.83;;;15.20;1.00;;;;;;5017888;28;20041;-57
2023/08/21 02:32:23;;;;;;;6.97;1.65;;;15.10;1.00;;;;;;5024088;28;20348;-54
2023/08/21 02:34:49;;;;;;;5.95;1.92;;;15.00;1.00;;;;;;5026382;28;20185;-58
2023/08/21 02:37:14;;;;;;;5.40;2.15;;;14.70;1.00;;;;;;5019715;28;20025;-57
2023/08/21 02:39:40;;;;;;;8.32;2.80;;;15.70;1.00;;;;;;5025388;28;20044;-58
2023/08/21 02:42:06;;;;;;;5.13;1.80;;;15.90;1.00;;;;;;5020580;28;20046;-57
2023/08/21 02:44:31;;;;;;;5.03;2.00;;;14.90;1.00;;;;;;5026966;28;20040;-57
2023/08/21 02:46:57;;;;;;;5.22;1.80;;;15.00;1.00;;;;;;5020041;28;20084;-56
2023/08/21 02:49:23;;;;;;;6.18;1.75;;;14.70;1.00;;;;;;5021841;28;20100;-55
2023/08/21 02:51:48;;;;;;;4.20;1.90;;;15.10;99.90;;;;;;5094959;22;20040;-57
2023/08/21 02:54:14;;;;;;;4.63;1.52;;;15.10;99.90;;;;;;5085196;28;20086;-57
2023/08/21 02:56:40;;;;;;;4.03;1.55;;;15.10;99.90;;;;;;5075715;28;20453;-58
2023/08/21 02:59:05;;;;;;;5.55;1.70;;;14.80;99.90;;;;;;5069684;28;20482;-58
2023/08/21 03:01:31;;;;;;;4.55;1.48;;;15.00;99.90;;;;;;5065272;28;20462;-56
2023/08/21 03:03:56;;;;;;;3.38;1.20;;;14.80;99.90;;;;;;5076491;28;20040;-57
2023/08/21 03:06:22;;;;;;;4.35;1.70;;;15.10;99.90;;;;;;5071007;28;20099;-57
2023/08/21 03:08:48;;;;;;;2.90;1.20;;;15.00;99.90;;;;;;5068904;28;20037;-57
2023/08/21 03:11:13;;;;;;;2.97;1.20;;;14.80;99.90;;;;;;5069952;28;20033;-57
2023/08/21 03:13:39;;;;;;;3.50;1.40;;;15.00;99.90;;;;;;5073952;28;20039;-57
2023/08/21 03:16:05;;;;;;;3.13;1.13;;;14.80;99.90;;;;;;5078074;28;20044;-54
2023/08/21 03:18:31;;;;;;;4.32;1.30;;;14.70;99.90;;;;;;5076396;28;20040;-57
2023/08/21 03:20:57;;;;;;;3.67;1.38;;;14.70;99.90;;;;;;5068475;28;20053;-56
2023/08/21 03:23:23;;;;;;;3.33;1.27;;;14.70;99.90;;;;;;5068230;28;20127;-55
2023/08/21 03:25:52;;;;;;;4.53;1.30;;;;;;;;;;5068660;28;20036;-57
2023/08/21 03:28:18;;;;;;;3.05;1.13;;;14.80;99.90;;;;;;5071851;28;20044;-57
2023/08/21 03:30:43;;;;;;;3.45;1.27;;;13.90;99.90;;;;;;5068032;28;20044;-58
2023/08/21 03:33:09;;;;;;;4.60;1.27;;;14.10;99.90;;;;;;5068779;28;20071;-57
2023/08/21 03:35:34;;;;;;;3.42;1.27;;;14.40;99.90;;;;;;5068622;28;20058;-56
2023/08/21 03:38:00;;;;;;;3.40;1.35;;;14.60;99.90;;;;;;5066413;28;20107;-57
2023/08/21 03:40:25;;;;;;;4.75;1.40;;;14.50;99.90;;;;;;5075294;28;20123;-56
2023/08/21 03:42:51;;;;;;;4.40;1.40;;;14.30;99.90;;;;;;5072012;28;20585;-57
2023/08/21 03:45:17;;;;;;;3.67;1.27;;;14.30;99.90;;;;;;5076063;28;20059;-58
2023/08/21 03:47:42;;;;;;;4.00;1.45;;;14.40;99.90;;;;;;5073902;28;20477;-57
2023/08/21 03:50:08;;;;;;;4.00;1.50;;;14.30;99.90;;;;;;5085440;28;20036;-56
2023/08/21 03:52:34;;;;;;;4.00;1.50;;;14.20;99.90;;;;;;5074954;28;20025;-58
2023/08/21 03:55:00;;;;;;;7.10;1.67;;;14.40;99.90;;;;;;5079774;28;20546;-57
2023/08/21 03:57:25;;;;;;;5.45;1.35;;;14.80;99.90;;;;;;5081163;28;20406;-57
2023/08/21 03:59:51;;;;;;;4.65;1.17;;;14.40;99.90;;;;;;5083635;28;20040;-58
2023/08/21 04:02:17;;;;;;;7.05;1.50;;;;;;;;;;5077289;28;20051;-56
2023/08/21 04:04:42;;;;;;;8.20;2.22;;;14.40;99.90;;;;;;5076239;28;20032;-58
2023/08/21 04:07:08;;;;;;;16.05;2.00;;;14.40;99.90;;;;;;5079460;28;20024;-57
2023/08/21 04:09:34;;;;;;;3.85;1.58;;;14.50;99.90;;;;;;5072571;28;20171;-57
2023/08/21 04:11:59;;;;;;;4.43;1.75;;;14.40;99.90;;;;;;5069072;28;20075;-58
2023/08/21 04:14:25;;;;;;;3.83;1.50;;;13.90;99.90;;;;;;5072518;28;20073;-56
2023/08/21 04:16:50;;;;;;;4.93;1.63;;;14.30;99.90;;;;;;5070164;28;20197;-56
2023/08/21 04:19:16;;;;;;;3.63;1.40;;;;;;;;;;5077009;28;20556;-58
2023/08/21 04:21:42;;;;;;;7.00;1.95;;;14.60;99.90;;;;;;5071230;28;20045;-58
2023/08/21 04:24:08;;;;;;;3.78;1.40;;;14.40;99.90;;;;;;5074737;28;20041;-58
2023/08/21 04:26:33;;;;;;;4.35;1.65;;;14.20;99.90;;;;;;5073184;28;20072;-57
2023/08/21 04:28:59;;;;;;;4.22;1.52;;;14.20;99.90;;;;;;5074875;28;20580;-57
2023/08/21 04:31:24;;;;;;;4.93;1.80;;;14.20;99.90;;;;;;5076470;28;20047;-56
2023/08/21 04:33:50;;;;;;;5.43;1.70;;;14.60;99.90;;;;;;5071463;28;20051;-56
2023/08/21 04:36:16;;;;;;;4.28;1.70;;;14.20;99.90;;;;;;5076182;28;20036;-56
2023/08/21 04:38:43;;;;;;;4.68;2.00;;;;;;;;;;5086519;28;20090;-57
2023/08/21 04:41:09;;;;;;;5.40;1.80;;;14.10;99.90;;;;;;5077889;28;20074;-57
2023/08/21 04:43:35;;;;;;;4.50;1.85;;;14.10;99.90;;;;;;5072037;28;20650;-57
2023/08/21 04:46:01;;;;;;;5.60;2.35;;;14.20;99.90;;;;;;5066637;28;20122;-57
2023/08/21 04:48:27;;;;;;;5.25;2.15;;;14.50;99.90;;;;;;5072839;28;20041;-58
2023/08/21 04:50:52;;;;;;;4.95;1.92;;;14.30;99.90;;;;;;5070844;28;20379;-58
2023/08/21 04:53:18;;;;;;;8.98;3.13;;;14.60;99.90;;;;;;5070237;28;20040;-56
2023/08/21 04:55:44;;;;;;;7.80;3.10;;;;;;;;;;5079641;28;20039;-56
2023/08/21 04:58:10;;;;;;;9.02;3.38;;;;;;;;;;5071609;28;20652;-55
2023/08/21 05:00:36;;;;;;;6.20;3.22;;;14.40;99.90;;;;;;5060665;28;20052;-57
2023/08/21 05:03:02;;;;;;;7.05;2.97;;;;;;;;;;5066220;28;20036;-57
2023/08/21 05:05:28;;;;;;;5.30;2.65;;;14.40;99.90;;;;;;5062940;28;20860;-57
2023/08/21 05:07:56;;;;;;;6.22;2.85;;;14.40;99.90;;;;;;5070565;28;20032;-57
2023/08/21 05:10:22;;;;;;;7.78;3.13;;;14.80;99.90;;;;;;5067793;28;20562;-57
2023/08/21 05:12:47;;;;;;;10.52;3.45;;;14.50;99.90;;;;;;5075906;28;20115;-58
2023/08/21 05:15:14;;;;;;;7.57;3.03;;;14.50;99.90;;;;;;5070613;28;20040;-58
2023/08/21 05:17:40;;;;;;;23.67;3.95;;;14.60;99.90;;;;;;5074142;28;20036;-56
2023/08/21 05:20:06;;;;;;;6.20;3.15;;;15.10;99.90;;;;;;5078762;28;20089;-57
2023/08/21 05:22:31;;;;;;;5.82;2.80;;;14.50;99.90;;;;;;5070122;28;20044;-58
2023/08/21 05:24:57;;;;;;;6.65;2.90;;;14.50;99.90;;;;;;5068103;28;20388;-58
2023/08/21 05:27:23;;;;;;;12.20;3.15;;;14.40;99.90;;;;;;5069614;28;20082;-58
2023/08/21 05:29:50;;;;;;;11.45;3.75;;;14.70;99.90;;;;;;5072421;28;20482;-56
2023/08/21 05:32:16;;;;;;;12.75;3.45;;;14.60;99.90;;;;;;5069934;28;20060;-58
2023/08/21 05:34:42;;;;;;;23.05;6.15;;;14.50;99.90;;;;;;5069949;28;20029;-57
2023/08/21 05:37:07;;;;;;;36.10;7.10;;;14.60;1.00;;;;;;5070268;28;20219;-56
2023/08/21 05:39:33;;;;;;;47.28;9.75;;;14.70;1.00;;;;;;5069511;28;20032;-57
2023/08/21 05:41:59;;;;;;;25.15;7.10;;;14.90;15.90;;;;;;5064728;28;20119;-55
2023/08/21 05:44:25;;;;;;;12.95;3.95;;;14.60;52.20;;;;;;5073175;28;20459;-56
2023/08/21 05:46:51;;;;;;;15.95;3.95;;;;;;;;;;5062095;28;20168;-57
2023/08/21 05:49:16;;;;;;;8.85;2.88;;;14.40;99.90;;;;;;5066831;28;20409;-55
2023/08/21 05:51:42;;;;;;;8.00;2.08;;;14.70;99.90;;;;;;5061877;28;20044;-57
2023/08/21 05:54:08;;;;;;;6.35;2.00;;;14.70;99.90;;;;;;5066230;28;20035;-57
2023/08/21 05:56:34;;;;;;;5.50;2.45;;;;;;;;;;5063169;28;20547;-56
2023/08/21 05:58:59;;;;;;;6.05;2.42;;;15.00;99.90;;;;;;5066755;28;20124;-57
2023/08/21 06:01:25;;;;;;;6.28;2.50;;;14.80;99.90;;;;;;5066011;28;20123;-56
2023/08/21 06:03:51;;;;;;;5.28;2.08;;;14.80;99.90;;;;;;5069091;28;20162;-56
2023/08/21 06:06:16;;;;;;;5.38;2.83;;;14.70;99.90;;;;;;5066064;28;20029;-57
2023/08/21 06:08:42;;;;;;;7.03;2.95;;;14.80;99.90;;;;;;5067990;28;20457;-57
2023/08/21 06:11:07;;;;;;;8.38;3.58;;;15.40;99.90;;;;;;5065245;28;20043;-57
2023/08/21 06:13:33;;;;;;;6.20;2.97;;;15.20;99.90;;;;;;5069253;28;20055;-56
2023/08/21 06:15:59;;;;;;;7.53;3.25;;;15.10;99.90;;;;;;5068019;28;20119;-58
2023/08/21 06:18:24;;;;;;;7.25;3.60;;;15.00;99.90;;;;;;5069703;28;20048;-58
2023/08/21 06:20:53;;;;;;;8.18;3.75;;;15.40;99.90;;;;;;5069517;28;20112;-58
2023/08/21 06:23:20;;;;;;;6.68;3.35;;;;;;;;;;5067934;28;20045;-58
2023/08/21 06:25:48;;;;;;;6.65;3.30;;;15.90;99.90;;;;;;5062857;28;20574;-59
2023/08/21 06:28:14;;;;;;;9.00;3.40;;;15.50;99.90;;;;;;5060358;28;20035;-57
2023/08/21 06:30:39;;;;;;;7.78;3.65;;;15.20;99.90;;;;;;5058752;28;20032;-60
2023/08/21 06:33:05;;;;;;;7.60;3.70;;;16.40;99.90;;;;;;5064320;28;20037;-60
2023/08/21 06:35:31;;;;;;;8.27;3.40;;;16.00;99.90;;;;;;5067702;28;20040;-60
2023/08/21 06:37:56;;;;;;;12.77;4.72;;;15.70;99.90;;;;;;5065991;28;20062;-59
2023/08/21 06:40:22;;;;;;;8.57;3.90;;;16.30;99.90;;;;;;5060020;28;20032;-58
2023/08/21 06:42:50;;;;;;;8.38;3.50;;;17.00;99.90;;;;;;5059710;28;20040;-58
2023/08/21 06:45:17;;;;;;;8.57;4.65;;;16.60;99.90;;;;;;5060370;28;20143;-59
2023/08/21 06:47:42;;;;;;;7.60;3.85;;;17.10;99.90;;;;;;5064395;28;20049;-58
2023/08/21 06:50:09;;;;;;;9.68;4.10;;;;;;;;;;5066401;28;20575;-57
2023/08/21 06:52:34;;;;;;;10.77;5.43;;;16.40;99.90;;;;;;5067521;28;20036;-57
2023/08/21 06:55:00;;;;;;;10.60;4.57;;;16.60;99.90;;;;;;5060680;28;20047;-59
2023/08/21 06:57:25;;;;;;;7.28;4.07;;;17.00;99.90;;;;;;5066204;28;20028;-57
2023/08/21 06:59:51;;;;;;;9.45;4.35;;;17.50;99.90;;;;;;5062018;28;20110;-58
2023/08/21 07:02:17;;;;;;;8.73;4.10;;;17.20;99.90;;;;;;5061134;28;20490;-57
2023/08/21 07:04:42;;;;;;;15.60;5.72;;;17.50;99.90;;;;;;5065275;28;20082;-57
2023/08/21 07:07:08;;;;;;;14.80;4.57;;;17.60;99.90;;;;;;5065090;28;20036;-59
2023/08/21 07:09:33;;;;;;;11.70;5.03;;;17.40;99.90;;;;;;5064475;28;20157;-55
2023/08/21 07:11:59;;;;;;;8.63;4.38;;;17.60;99.90;;;;;;4996105;28;20045;-57
2023/08/21 07:14:25;;;;;;;9.20;4.55;;;17.50;99.90;;;;;;5032118;28;20463;-58
2023/08/21 07:16:50;;;;;;;11.02;4.55;;;17.40;99.90;;;;;;5058216;28;20041;-59
2023/08/21 07:19:17;;;;;;;11.05;5.38;;;17.70;99.90;;;;;;5057551;28;20078;-58
2023/08/21 07:21:42;;;;;;;8.52;4.85;;;17.80;99.90;;;;;;5053210;28;20040;-58
2023/08/21 07:24:08;;;;;;;10.23;5.10;;;17.70;99.90;;;;;;5061003;28;20040;-57
2023/08/21 07:26:34;;;;;;;10.63;4.85;;;17.60;99.90;;;;;;5061837;28;20040;-58
2023/08/21 07:28:59;;;;;;;12.30;4.38;;;18.70;99.90;;;;;;5062633;28;20040;-58
2023/08/21 07:31:25;;;;;;;8.75;3.80;;;18.70;99.90;;;;;;5047077;28;20048;-56
2023/08/21 07:33:51;;;;;;;10.85;4.70;;;18.80;99.90;;;;;;5062402;28;20062;-57
2023/08/21 07:36:19;;;;;;;10.95;5.07;;;17.90;99.90;;;;;;5065779;28;20569;-56
2023/08/21 07:38:45;;;;;;;9.73;4.85;;;18.20;99.90;;;;;;5064947;28;20086;-58
2023/08/21 07:41:12;;;;;;;9.80;4.65;;;18.00;99.90;;;;;;5065150;28;20040;-58
2023/08/21 07:43:40;;;;;;;10.23;4.88;;;19.00;99.90;;;;;;5062734;28;20444;-57
2023/08/21 07:46:13;;;;;;;13.50;5.55;;;19.00;99.90;;;;;;5066505;28;20405;-59
2023/08/21 07:48:39;;;;;;;8.80;4.70;;;18.70;99.90;;;;;;5067165;28;20036;-59
2023/08/21 07:51:05;;;;;;;13.80;5.20;;;19.30;99.90;;;;;;5060785;28;20036;-57
2023/08/21 07:53:31;;;;;;;12.05;5.18;;;19.20;99.90;;;;;;5064095;28;20039;-59
2023/08/21 07:56:00;;;;;;;11.50;5.22;;;18.90;99.90;;;;;;5064430;28;20047;-58
2023/08/21 07:58:26;;;;;;;17.77;5.28;;;19.00;99.90;;;;;;5066207;28;20497;-58
2023/08/21 08:00:52;;;;;;;14.70;5.25;;;18.60;99.90;;;;;;5061987;28;20095;-58
2023/08/21 08:03:17;;;;;;;14.65;5.72;;;19.40;99.90;;;;;;5068512;28;20545;-58
2023/08/21 08:05:43;;;;;;;11.85;4.78;;;18.90;99.90;;;;;;5064921;28;20119;-58
2023/08/21 08:08:09;;;;;;;12.38;4.35;;;19.20;99.90;;;;;;5073885;28;20036;-59
2023/08/21 08:10:39;;;;;;;11.30;4.72;;;19.80;93.50;;;;;;5063557;28;20028;-59
2023/08/21 08:13:05;;;;;;;14.25;5.05;;;19.50;1.00;;;;;;5067597;28;20054;-59
2023/08/21 08:15:31;;;;;;;11.93;5.05;;;20.20;1.00;;;;;;5057849;28;20123;-57
2023/08/21 08:17:57;;;;;;;12.23;4.82;;;19.70;1.00;;;;;;5065696;28;20520;-58
2023/08/21 08:20:23;;;;;;;10.10;4.18;;;19.40;99.90;;;;;;5073027;28;20127;-60
2023/08/21 08:22:49;;;;;;;8.35;4.13;;;19.50;99.90;;;;;;5068158;28;20481;-58
2023/08/21 08:25:14;;;;;;;9.60;3.95;;;19.60;99.90;;;;;;5069327;28;20036;-59
2023/08/21 08:27:40;;;;;;;10.50;4.47;;;20.40;99.90;;;;;;5068288;28;20032;-59
2023/08/21 08:30:06;;;;;;;11.70;4.85;;;;;;;;;;5071113;28;20040;-59
2023/08/21 08:32:32;;;;;;;12.10;4.75;;;19.90;99.90;;;;;;5068669;28;20509;-59
2023/08/21 08:34:58;;;;;;;9.63;4.60;;;20.30;99.90;;;;;;5067401;28;20123;-57
2023/08/21 08:37:23;;;;;;;12.10;4.85;;;20.00;99.90;;;;;;5068726;28;20037;-59
2023/08/21 08:39:49;;;;;;;9.15;4.47;;;20.40;99.90;;;;;;5069984;28;20048;-59
2023/08/21 08:42:15;;;;;;;12.23;4.35;;;20.10;99.90;;;;;;5068034;28;20032;-58
2023/08/21 08:44:42;;;;;;;11.07;4.00;;;20.50;99.90;;;;;;5066867;28;20444;-58
2023/08/21 08:47:10;;;;;;;12.85;4.78;;;20.60;99.90;;;;;;5063237;28;20094;-58
2023/08/21 08:49:36;;;;;;;11.57;3.80;;;20.30;99.90;;;;;;5063243;28;20131;-57
2023/08/21 08:52:02;;;;;;;10.32;4.22;;;20.30;99.90;;;;;;5070617;28;20525;-58
2023/08/21 08:54:30;;;;;;;11.10;4.10;;;20.40;89.90;;;;;;5068075;28;20052;-58
2023/08/21 08:56:56;;;;;;;9.13;3.65;;;20.60;38.60;;;;;;5064981;28;20052;-56
2023/08/21 08:59:21;;;;;;;7.40;3.58;;;21.10;1.00;;;;;;5068413;28;20040;-58
2023/08/21 09:01:47;;;;;;;9.25;4.05;;;20.30;1.00;;;;;;5070154;28;20116;-58
2023/08/21 09:04:13;;;;;;;10.77;4.43;;;21.00;7.80;;;;;;5067295;28;20097;-57
2023/08/21 09:06:39;;;;;;;8.95;3.53;;;20.90;1.00;;;;;;5068451;28;20033;-57
2023/08/21 09:09:04;;;;;;;9.90;3.95;;;20.40;1.00;;;;;;5068725;28;20040;-58
2023/08/21 09:11:32;;;;;;;10.95;3.80;;;21.30;99.90;;;;;;5067571;28;20535;-58
2023/08/21 09:13:58;;;;;;;9.95;3.88;;;21.70;99.90;;;;;;5069469;28;20686;-57
2023/08/21 09:16:25;;;;;;;11.23;3.90;;;21.30;99.90;;;;;;5063725;28;20040;-58
2023/08/21 09:18:57;;;;;;;10.50;4.45;;;21.60;99.90;;;;;;5067881;28;20119;-57
2023/08/21 09:21:25;;;;;;;9.73;4.65;;;21.60;99.90;;;;;;5065569;28;20047;-58
2023/08/21 09:23:58;;;;;;;10.40;4.78;;;21.80;99.90;;;;;;5068559;28;20064;-58
2023/08/21 09:26:25;;;;;;;9.93;3.45;;;21.80;99.90;;;;;;5067677;28;20089;-57
2023/08/21 09:28:52;;;;;;;13.63;4.63;;;21.40;99.90;;;;;;5068207;28;20120;-55
2023/08/21 09:31:23;;;;;;;10.13;4.63;;;22.00;99.90;;;;;;5067350;28;20044;-57
2023/08/21 09:33:57;;;;;;;9.45;4.63;;;21.80;99.90;;;;;;5064172;28;20494;-57
2023/08/21 09:36:23;;;;;;;11.00;4.07;;;21.80;99.90;;;;;;5065836;28;20382;-58
2023/08/21 09:38:51;;;;;;;10.68;3.30;;;21.80;99.90;;;;;;5061788;28;20122;-58
2023/08/21 09:41:20;;;;;;;9.43;3.15;;;22.20;99.90;;;;;;5064066;28;20407;-57
2023/08/21 09:43:45;;;;;;;8.57;3.30;;;21.60;99.90;;;;;;5065810;28;20036;-60
2023/08/21 09:46:23;;;;;;;9.75;3.45;;;21.80;63.90;;;;;;5062506;28;20759;-59
2023/08/21 09:48:51;;;;;;;8.98;2.75;;;21.70;1.00;;;;;;5060731;28;20068;-57
2023/08/21 09:51:17;;;;;;;7.03;2.78;;;22.50;1.00;;;;;;5068164;28;20036;-58
2023/08/21 09:53:43;;;;;;;9.23;3.15;;;21.50;99.90;;;;;;5078413;28;20039;-60
2023/08/21 09:56:09;;;;;;;8.95;2.50;;;22.00;99.90;;;;;;5071787;28;20099;-60
2023/08/21 09:58:36;;;;;;;9.38;2.30;;;22.30;99.90;;;;;;5070827;28;20677;-60
2023/08/21 10:01:14;;;;;;;10.10;2.15;;;22.20;99.90;;;;;;5069179;28;20045;-60
2023/08/21 10:03:41;;;;;;;7.03;1.60;;;21.70;99.90;;;;;;5080733;28;20036;-60
2023/08/21 10:06:09;;;;;;;8.93;2.33;;;22.70;99.90;;;;;;5073475;28;20445;-60
2023/08/21 10:08:42;;;;;;;7.20;2.13;;;22.40;99.90;;;;;;5069448;28;20037;-60
2023/08/21 10:11:09;;;;;;;10.20;2.00;;;22.40;99.90;;;;;;5066551;28;20043;-59
2023/08/21 10:13:38;;;;;;;9.63;2.38;;;21.80;99.90;;;;;;5067859;28;20071;-60
2023/08/21 10:16:08;;;;;;;5.93;1.80;;;22.80;99.60;;;;;;5070140;28;20040;-60
2023/08/21 10:18:35;;;;;;;5.13;1.42;;;22.90;88.20;;;;;;5065199;28;20040;-60
2023/08/21 10:21:16;;;;;;;7.40;2.08;;;22.70;85.50;;;;;;5059130;28;20040;-60
2023/08/21 10:23:46;;;;;;;7.43;1.98;;;22.90;60.00;;;;;;5070254;28;20042;-60
2023/08/21 10:26:12;;;;;;;8.73;2.13;;;23.00;43.70;;;;;;5071090;28;20047;-60
2023/08/21 10:28:59;;;;;;;4.78;1.60;;;22.60;33.00;;;;;;5066917;28;20036;-60
2023/08/21 10:31:36;;;;;;;6.00;1.90;;;22.80;11.70;;;;;;5066922;28;20056;-60
2023/08/21 10:34:10;;;;;;;7.32;2.17;;;23.10;1.00;;;;;;5078428;28;20043;-60
2023/08/21 10:36:44;;;;;;;6.72;1.95;;;22.80;1.00;;;;;;5067521;28;20042;-60
2023/08/21 10:39:29;;;;;;;6.63;2.22;;;23.00;1.00;;;;;;5068599;28;20036;-60
2023/08/21 10:41:58;;;;;;;7.13;1.92;;;23.20;1.00;;;;;;5068390;28;20041;-60
2023/08/21 10:44:40;;;;;;;8.38;2.00;;;21.10;1.00;;;;;;5075537;28;20035;-60
2023/08/21 10:47:23;;;;;;;7.57;2.38;;;23.00;1.00;;;;;;5068962;28;20043;-60
2023/08/21 10:50:00;;;;;;;7.22;2.10;;;23.20;1.00;;;;;;5066218;28;20048;-60
2023/08/21 10:52:30;;;;;;;6.85;2.08;;;23.70;1.00;;;;;;5068091;28;20104;-60
2023/08/21 10:54:59;;;;;;;5.90;1.98;;;23.40;1.00;;;;;;5075566;28;20035;-60
2023/08/21 10:57:28;;;;;;;7.72;2.40;;;23.00;1.00;;;;;;5073407;28;20028;-60
2023/08/21 11:00:04;;;;;;;6.65;2.13;;;23.20;1.00;;;;;;5057712;28;20440;-60
2023/08/21 11:02:31;;;;;;;6.15;2.08;;;23.80;1.00;;;;;;5067119;28;20512;-60
2023/08/21 11:04:58;;;;;;;7.68;2.22;;;23.30;1.00;;;;;;5061487;28;20551;-60
2023/08/21 11:07:25;;;;;;;8.63;2.60;;;23.80;1.00;;;;;;5068553;28;20028;-60
2023/08/21 11:09:51;;;;;;;8.55;2.55;;;23.90;1.00;;;;;;5066117;28;20110;-60
2023/08/21 11:12:18;;;;;;;8.68;2.20;;;23.50;1.00;;;;;;5074850;28;20082;-60
2023/08/21 11:14:45;;;;;;;5.45;2.17;;;23.70;1.00;;;;;;5067004;28;20028;-60
2023/08/21 11:17:11;;;;;;;6.60;2.00;;;23.80;1.00;;;;;;5066652;28;20450;-60
2023/08/21 11:19:38;;;;;;;8.18;1.95;;;23.70;1.00;;;;;;5067279;28;20143;-60
2023/08/21 11:22:05;;;;;;;8.90;2.67;;;23.60;1.00;;;;;;5065548;28;20086;-60
2023/08/21 11:24:37;;;;;;;6.35;1.60;;;23.90;1.00;;;;;;5067300;28;20040;-60
2023/08/21 11:27:07;;;;;;;7.93;1.92;;;23.90;1.00;;;;;;5071146;28;20048;-60
2023/08/21 11:29:47;;;;;;;7.40;1.95;;;23.50;99.90;;;;;;5067894;28;20072;-60
2023/08/21 11:32:24;;;;;;;5.15;2.00;;;23.60;99.90;;;;;;5065720;28;20044;-60
2023/08/21 11:34:53;;;;;;;7.00;1.95;;;24.50;99.90;;;;;;5074063;28;20083;-60
2023/08/21 11:37:21;;;;;;;7.07;1.80;;;24.70;1.00;;;;;;5079090;28;20501;-60
2023/08/21 11:39:52;;;;;;;7.57;2.15;;;22.40;99.90;;;;;;5068737;28;20123;-60
2023/08/21 11:42:20;;;;;;;6.20;1.83;;;23.80;99.90;;;;;;5081152;28;20032;-59
2023/08/21 11:44:51;;;;;;;6.63;2.17;;;24.90;99.90;;;;;;5061496;28;20048;-60
2023/08/21 11:47:18;;;;;;;10.45;2.20;;;24.40;99.90;;;;;;5069082;28;20082;-60
2023/08/21 11:49:47;;;;;;;5.65;1.70;;;24.60;99.90;;;;;;5069560;28;20044;-60
2023/08/21 11:52:14;;;;;;;8.32;2.20;;;23.90;99.90;;;;;;5071878;28;20040;-60
2023/08/21 11:54:41;;;;;;;5.80;2.08;;;23.60;99.90;;;;;;5066688;28;20087;-61
2023/08/21 11:57:08;;;;;;;8.18;3.15;;;24.50;99.90;;;;;;5062862;28;20489;-60
2023/08/21 11:59:35;;;;;;;6.95;2.53;;;24.70;99.90;;;;;;5075954;28;20032;-60
2023/08/21 12:02:01;;;;;;;7.63;2.40;;;24.00;99.90;;;;;;5067395;28;20044;-60
2023/08/21 12:04:27;;;;;;;7.22;2.28;;;24.90;99.90;;;;;;5075963;28;20024;-60
2023/08/21 12:06:52;;;;;;;7.53;3.15;;;25.00;99.90;;;;;;5078166;28;20093;-60
2023/08/21 12:09:21;;;;;;;7.57;1.80;;;25.40;99.90;;;;;;5069735;28;20119;-60
2023/08/21 12:11:46;;;;;;;5.60;1.60;;;25.20;99.90;;;;;;5072692;28;20067;-60
2023/08/21 12:14:12;;;;;;;7.13;2.08;;;25.50;99.90;;;;;;5074131;28;20032;-60
2023/08/21 12:16:38;;;;;;;6.57;2.50;;;25.10;99.90;;;;;;5071340;28;20041;-60
2023/08/21 12:19:03;;;;;;;9.68;3.10;;;25.70;99.90;;;;;;5071139;28;20075;-60
2023/08/21 12:21:29;;;;;;;8.73;2.72;;;25.60;99.90;;;;;;5076504;28;20488;-60
2023/08/21 12:23:54;;;;;;;7.00;2.95;;;25.80;99.90;;;;;;5067075;28;20037;-60
2023/08/21 12:26:21;;;;;;;8.70;3.20;;;25.30;99.90;;;;;;5078673;28;20043;-61
2023/08/21 12:28:50;;;;;;;6.90;2.45;;;26.00;99.90;;;;;;5070831;28;20391;-60
2023/08/21 12:31:15;;;;;;;9.52;3.40;;;25.70;99.90;;;;;;5070108;28;20036;-60
2023/08/21 12:33:41;;;;;;;6.82;3.67;;;25.70;99.90;;;;;;5068040;28;20052;-61
2023/08/21 12:36:10;;;;;;;9.60;3.67;;;26.80;99.90;;;;;;5081398;28;20072;-61
2023/08/21 12:38:36;;;;;;;7.45;3.45;;;26.60;99.90;;;;;;5070249;28;20053;-60
2023/08/21 12:41:02;;;;;;;8.88;4.10;;;26.80;99.90;;;;;;5075261;28;20024;-61
2023/08/21 12:43:28;;;;;;;7.75;3.40;;;27.90;99.90;;;;;;5070452;28;20401;-61
2023/08/21 12:45:54;;;;;;;8.80;2.92;;;29.10;99.90;;;;;;5069314;28;20037;-61
2023/08/21 12:48:19;;;;;;;11.68;4.38;;;30.20;99.90;;;;;;5071184;28;20040;-61